createdAt,value
2019-02-04T00:00:01.114Z,100
2019-02-04T00:05:01.271Z,100
2019-02-04T00:10:01.305Z,100
2019-02-04T00:15:01.123Z,100
2019-02-04T00:20:01.131Z,100
2019-02-04T00:25:01.308Z,100
2019-02-04T00:30:01.503Z,100
2019-02-04T00:35:01.263Z,100
2019-02-04T00:40:01.346Z,100
2019-02-04T00:45:01.259Z,100
2019-02-04T00:50:01.222Z,100
2019-02-04T00:55:01.306Z,100
2019-02-04T01:00:01.278Z,100
2019-02-04T01:05:01.416Z,100
2019-02-04T01:10:01.304Z,100
2019-02-04T01:15:01.158Z,100
2019-02-04T01:20:01.298Z,100
2019-02-04T01:25:01.673Z,100
2019-02-04T01:30:01.322Z,100
2019-02-04T01:35:01.411Z,100
2019-02-04T01:40:01.306Z,100
2019-02-04T01:45:01.510Z,100
2019-02-04T01:50:01.451Z,100
2019-02-04T01:55:01.187Z,100
2019-02-04T02:00:01.174Z,100
2019-02-04T02:05:01.531Z,100
2019-02-04T02:10:01.420Z,100
2019-02-04T02:15:01.322Z,100
2019-02-04T02:20:01.352Z,100
2019-02-04T02:25:01.186Z,100
2019-02-04T02:30:01.213Z,100
2019-02-04T02:35:01.218Z,100
2019-02-04T02:40:01.319Z,100
2019-02-04T02:45:01.497Z,100
2019-02-04T02:50:01.362Z,100
2019-02-04T02:55:01.205Z,100
2019-02-04T03:00:01.914Z,100
2019-02-04T03:05:01.372Z,100
2019-02-04T03:10:01.413Z,100
2019-02-04T03:15:01.347Z,100
2019-02-04T03:20:01.222Z,100
2019-02-04T03:25:01.225Z,100
2019-02-04T03:30:01.450Z,100
2019-02-04T03:35:01.401Z,100
2019-02-04T03:40:01.409Z,100
2019-02-04T03:45:01.496Z,100
2019-02-04T03:50:01.355Z,100
2019-02-04T03:55:01.431Z,100
2019-02-04T04:00:01.446Z,100
2019-02-04T04:05:01.247Z,100
2019-02-04T04:10:01.409Z,100
2019-02-04T04:15:01.238Z,100
2019-02-04T04:20:01.244Z,100
2019-02-04T04:25:01.400Z,100
2019-02-04T04:30:01.449Z,100
2019-02-04T04:35:01.749Z,100
2019-02-04T04:40:01.543Z,100
2019-02-04T04:45:01.296Z,100
2019-02-04T04:50:01.465Z,100
2019-02-04T04:55:01.259Z,100
2019-02-04T05:00:01.275Z,100
2019-02-04T05:05:01.289Z,100
2019-02-04T05:10:01.286Z,100
2019-02-04T05:15:01.421Z,100
2019-02-04T05:20:01.436Z,100
2019-02-04T05:25:01.508Z,100
2019-02-04T05:30:01.817Z,100
2019-02-04T05:35:01.482Z,100
2019-02-04T05:40:01.529Z,100
2019-02-04T05:45:01.447Z,100
2019-02-04T05:50:01.322Z,100
2019-02-04T05:55:01.309Z,100
2019-02-04T06:00:01.327Z,100
2019-02-04T06:05:01.322Z,100
2019-02-04T06:10:01.523Z,100
2019-02-04T06:15:01.564Z,99.6
2019-02-04T06:20:03.480Z,100
2019-02-04T06:25:01.666Z,100
2019-02-04T06:30:01.319Z,100
2019-02-04T06:35:01.344Z,100
2019-02-04T06:40:01.321Z,99.9
2019-02-04T06:45:01.559Z,99.3
2019-02-04T06:50:01.457Z,99.3
2019-02-04T06:55:01.332Z,98.7
2019-02-04T07:00:01.550Z,99
2019-02-04T07:05:01.570Z,98.5
2019-02-04T07:10:01.490Z,98.6
2019-02-04T07:15:01.367Z,97.7
2019-02-04T07:20:02.089Z,98.1
2019-02-04T07:25:01.518Z,97.8
2019-02-04T07:30:02.484Z,97.9
2019-02-04T07:35:01.941Z,97.8
2019-02-04T07:40:01.562Z,96.9
2019-02-04T07:45:01.385Z,96.3
2019-02-04T07:50:01.351Z,96.3
2019-02-04T07:55:01.523Z,96.8
2019-02-04T08:00:01.359Z,97.1
2019-02-04T08:05:01.394Z,96.5
2019-02-04T08:10:01.609Z,96.2
2019-02-04T08:15:01.399Z,96.2
2019-02-04T08:20:01.389Z,96.5
2019-02-04T08:25:01.412Z,96.5
2019-02-04T08:30:01.804Z,96.7
2019-02-04T08:35:01.581Z,95.6
2019-02-04T08:40:04.264Z,95.5
2019-02-04T08:45:02.835Z,95.3
2019-02-04T08:50:02.390Z,94.4
2019-02-04T08:55:01.435Z,94.8
2019-02-04T09:00:01.702Z,94.4
2019-02-04T09:05:01.583Z,94.2
2019-02-04T09:10:01.421Z,93.6
2019-02-04T09:15:01.903Z,93.1
2019-02-04T09:20:10.559Z,92.8
2019-02-04T09:25:01.448Z,92.6
2019-02-04T09:30:01.868Z,91.7
2019-02-04T09:35:01.574Z,90.8
2019-02-04T09:40:01.451Z,90.2
2019-02-04T09:45:01.423Z,89.9
2019-02-04T09:50:01.567Z,90.4
2019-02-04T09:55:01.594Z,88.9
2019-02-04T10:00:01.557Z,89.4
2019-02-04T10:05:01.423Z,89.5
2019-02-04T10:10:01.463Z,89.1
2019-02-04T10:15:01.482Z,89.1
2019-02-04T10:20:01.658Z,88.2
2019-02-04T10:25:02.079Z,88.2
2019-02-04T10:30:01.808Z,87.4
2019-02-04T10:35:01.513Z,87
2019-02-04T10:40:01.663Z,85.6
2019-02-04T10:45:01.829Z,85.7
2019-02-04T10:50:02.047Z,86.1
2019-02-04T10:55:01.750Z,83.9
2019-02-04T11:00:01.499Z,85
2019-02-04T11:05:01.526Z,82.4
2019-02-04T11:10:01.671Z,83.8
2019-02-04T11:15:01.693Z,84.1
2019-02-04T11:20:01.772Z,85
2019-02-04T11:25:01.824Z,84.4
2019-02-04T11:30:01.575Z,84
2019-02-04T11:35:01.964Z,84.9
2019-02-04T11:40:01.752Z,83.6
2019-02-04T11:45:01.645Z,83.5
2019-02-04T11:50:01.706Z,80.7
2019-02-04T11:55:01.625Z,80.4
2019-02-04T12:00:01.667Z,79.7
2019-02-04T12:05:01.683Z,79.1
2019-02-04T12:10:01.476Z,77.8
2019-02-04T12:15:01.774Z,78.4
2019-02-04T12:20:01.676Z,76.8
2019-02-04T12:25:01.729Z,78.6
2019-02-04T12:30:02.007Z,78.6
2019-02-04T12:35:01.518Z,77.9
2019-02-04T12:40:01.711Z,76.7
2019-02-04T12:45:01.861Z,76
2019-02-04T12:50:01.530Z,74.3
2019-02-04T12:55:01.522Z,73.3
2019-02-04T13:00:01.794Z,72.3
2019-02-04T13:05:01.675Z,72.6
2019-02-04T13:10:01.732Z,71.7
2019-02-04T13:15:01.659Z,71.3
2019-02-04T13:20:01.675Z,72.1
2019-02-04T13:25:01.745Z,73.9
2019-02-04T13:30:01.772Z,71.5
2019-02-04T13:35:01.698Z,69.9
2019-02-04T13:40:02.009Z,69.8
2019-02-04T13:45:01.553Z,65.1
2019-02-04T13:50:01.560Z,65.6
2019-02-04T13:55:01.575Z,66.1
2019-02-04T14:00:01.499Z,66.6
2019-02-04T14:05:01.565Z,66.2
2019-02-04T14:10:02.002Z,65.3
2019-02-04T14:15:01.558Z,66.3
2019-02-04T14:20:02.289Z,65.1
2019-02-04T14:25:01.713Z,64.5
2019-02-04T14:30:01.750Z,66.1
2019-02-04T14:35:01.861Z,64.4
2019-02-04T14:40:01.827Z,64.5
2019-02-04T14:45:01.738Z,65.1
2019-02-04T14:50:01.587Z,65.2
2019-02-04T14:55:01.776Z,64.9
2019-02-04T15:00:02.004Z,65.1
2019-02-04T15:05:01.801Z,64
2019-02-04T15:10:01.619Z,61.7
2019-02-04T15:15:01.751Z,64.6
2019-02-04T15:20:01.801Z,65.9
2019-02-04T15:25:01.690Z,67.2
2019-02-04T15:30:01.899Z,67.6
2019-02-04T15:35:05.255Z,68
2019-02-04T15:40:01.792Z,69
2019-02-04T15:45:01.769Z,73
2019-02-04T15:50:01.774Z,74.7
2019-02-04T15:55:01.830Z,76.3
2019-02-04T16:00:01.797Z,78.1
2019-02-04T16:05:01.623Z,78.1
2019-02-04T16:10:01.852Z,78.5
2019-02-04T16:15:01.619Z,79.9
2019-02-04T16:20:01.632Z,80.6
2019-02-04T16:25:01.644Z,81.1
2019-02-04T16:30:01.665Z,82.9
2019-02-04T16:35:02.040Z,83.6
2019-02-04T16:40:01.696Z,84.7
2019-02-04T16:45:01.665Z,84.8
2019-02-04T16:50:01.689Z,85.1
2019-02-04T16:55:01.624Z,85.5
2019-02-04T17:00:01.746Z,86.3
2019-02-04T17:05:01.680Z,86.9
2019-02-04T17:10:01.704Z,87.3
2019-02-04T17:15:01.685Z,87.7
2019-02-04T17:20:01.686Z,88
2019-02-04T17:25:02.096Z,88.6
2019-02-04T17:30:01.692Z,89.9
2019-02-04T17:35:01.666Z,91.9
2019-02-04T17:40:01.805Z,92.4
2019-02-04T17:45:02.085Z,92.5
2019-02-04T17:50:01.655Z,90.9
2019-02-04T17:55:01.712Z,91.3
2019-02-04T18:00:02.030Z,91.4
2019-02-04T18:05:01.835Z,91.3
2019-02-04T18:10:01.698Z,92
2019-02-04T18:15:01.706Z,92.4
2019-02-04T18:20:01.782Z,92.7
2019-02-04T18:25:02.334Z,92.1
2019-02-04T18:30:01.826Z,90.6
2019-02-04T18:35:02.069Z,89.4
2019-02-04T18:40:01.749Z,89.4
2019-02-04T18:45:01.809Z,89.5
2019-02-04T18:50:02.190Z,91.2
2019-02-04T18:55:01.738Z,91.8
2019-02-04T19:00:01.824Z,92
2019-02-04T19:05:04.567Z,93.6
2019-02-04T19:10:04.717Z,92.3
2019-02-04T19:15:01.796Z,93.2
2019-02-04T19:20:03.494Z,91.7
2019-02-04T19:25:02.004Z,90.6
2019-02-04T19:30:01.894Z,91.2
2019-02-04T19:35:03.081Z,92.4
2019-02-04T19:40:01.974Z,91.8
2019-02-04T19:45:01.790Z,91.9
2019-02-04T19:50:04.690Z,92.1
2019-02-04T19:55:01.791Z,91.4
2019-02-04T20:00:01.968Z,91.5
2019-02-04T20:05:01.807Z,92.2
2019-02-04T20:10:02.082Z,91.8
2019-02-04T20:15:01.878Z,92.3
2019-02-04T20:20:01.814Z,91.8
2019-02-04T20:25:01.940Z,92.6
2019-02-04T20:30:02.095Z,93.5
2019-02-04T20:35:01.826Z,93.7
2019-02-04T20:40:01.941Z,94.2
2019-02-04T20:45:01.820Z,94.7
2019-02-04T20:50:01.847Z,94.7
2019-02-04T20:55:02.055Z,95.9
2019-02-04T21:00:01.972Z,96.6
2019-02-04T21:05:01.750Z,95.1
2019-02-04T21:10:01.826Z,95.6
2019-02-04T21:15:02.140Z,95.7
2019-02-04T21:20:01.824Z,95.9
2019-02-04T21:25:02.570Z,96.3
2019-02-04T21:30:01.841Z,96.1
2019-02-04T21:35:02.011Z,96.7
2019-02-04T21:40:01.964Z,97.1
2019-02-04T21:45:01.969Z,96.5
2019-02-04T21:50:01.838Z,95.9
2019-02-04T21:55:09.066Z,95.9
2019-02-04T22:00:01.763Z,95.5
2019-02-04T22:05:02.294Z,95.4
2019-02-04T22:10:02.110Z,95.7
2019-02-04T22:15:02.346Z,95.9
2019-02-04T22:20:02.419Z,95.7
2019-02-04T22:25:02.395Z,96
2019-02-04T22:30:02.130Z,96.2
2019-02-04T22:35:02.003Z,96.3
2019-02-04T22:40:02.049Z,96.9
2019-02-04T22:45:02.090Z,96.3
2019-02-04T22:50:01.982Z,96.4
2019-02-04T22:55:02.092Z,96.9
2019-02-04T23:00:01.854Z,96.4
2019-02-04T23:05:02.033Z,96.3
2019-02-04T23:10:02.362Z,96.1
2019-02-04T23:15:02.079Z,96.6
2019-02-04T23:20:01.999Z,96.4
2019-02-04T23:25:01.885Z,96
2019-02-04T23:30:01.879Z,97.1
2019-02-04T23:35:01.855Z,96.8
2019-02-04T23:40:02.027Z,96.7
2019-02-04T23:45:01.864Z,96.4
2019-02-04T23:50:02.114Z,96.1
2019-02-04T23:55:01.995Z,96
